sensor_id;sensor_type;location;lat;lon;timestamp;pressure;altitude;pressure_sealevel;temperature
77414;BMP280;66486;49.992;19.164;2023-11-19T00:01:23;99304.94;;;1.68
77414;BMP280;66486;49.992;19.164;2023-11-19T00:03:49;99306.09;;;1.42
77414;BMP280;66486;49.992;19.164;2023-11-19T00:06:15;99309.97;;;1.45
77414;BMP280;66486;49.992;19.164;2023-11-19T00:08:42;99298.78;;;1.39
77414;BMP280;66486;49.992;19.164;2023-11-19T00:11:09;99302.28;;;1.16
77414;BMP280;66486;49.992;19.164;2023-11-19T00:13:35;99314.75;;;1.15
77414;BMP280;66486;49.992;19.164;2023-11-19T00:16:01;99305.72;;;1.04
77414;BMP280;66486;49.992;19.164;2023-11-19T00:18:29;99296.34;;;0.94
77414;BMP280;66486;49.992;19.164;2023-11-19T00:20:56;99294.44;;;1.07
77414;BMP280;66486;49.992;19.164;2023-11-19T00:23:21;99298.63;;;0.96
77414;BMP280;66486;49.992;19.164;2023-11-19T00:25:49;99287.94;;;0.80
77414;BMP280;66486;49.992;19.164;2023-11-19T00:28:15;99283.84;;;1.07
77414;BMP280;66486;49.992;19.164;2023-11-19T00:30:41;99282.56;;;1.41
77414;BMP280;66486;49.992;19.164;2023-11-19T00:33:07;99274.31;;;1.42
77414;BMP280;66486;49.992;19.164;2023-11-19T00:35:33;99270.41;;;1.40
77414;BMP280;66486;49.992;19.164;2023-11-19T00:37:59;99277.50;;;1.36
77414;BMP280;66486;49.992;19.164;2023-11-19T00:40:26;99275.72;;;1.40
77414;BMP280;66486;49.992;19.164;2023-11-19T00:42:52;99271.00;;;1.33
77414;BMP280;66486;49.992;19.164;2023-11-19T00:45:18;99272.47;;;1.19
77414;BMP280;66486;49.992;19.164;2023-11-19T00:47:44;99273.25;;;1.31
77414;BMP280;66486;49.992;19.164;2023-11-19T00:50:10;99268.16;;;1.14
77414;BMP280;66486;49.992;19.164;2023-11-19T00:52:37;99269.38;;;1.29
77414;BMP280;66486;49.992;19.164;2023-11-19T00:55:04;99275.22;;;1.10
77414;BMP280;66486;49.992;19.164;2023-11-19T00:57:31;99279.22;;;1.04
77414;BMP280;66486;49.992;19.164;2023-11-19T00:59:59;99278.09;;;1.29
77414;BMP280;66486;49.992;19.164;2023-11-19T01:02:25;99270.19;;;1.57
77414;BMP280;66486;49.992;19.164;2023-11-19T01:04:51;99264.97;;;1.61
77414;BMP280;66486;49.992;19.164;2023-11-19T01:07:18;99260.00;;;1.59
77414;BMP280;66486;49.992;19.164;2023-11-19T01:09:44;99261.56;;;1.60
77414;BMP280;66486;49.992;19.164;2023-11-19T01:12:10;99261.97;;;1.62
77414;BMP280;66486;49.992;19.164;2023-11-19T01:14:36;99263.41;;;1.72
77414;BMP280;66486;49.992;19.164;2023-11-19T01:17:03;99261.75;;;1.67
77414;BMP280;66486;49.992;19.164;2023-11-19T01:19:30;99270.56;;;1.71
77414;BMP280;66486;49.992;19.164;2023-11-19T01:21:56;99271.19;;;1.52
77414;BMP280;66486;49.992;19.164;2023-11-19T01:24:22;99260.00;;;1.31
77414;BMP280;66486;49.992;19.164;2023-11-19T01:26:48;99254.34;;;1.33
77414;BMP280;66486;49.992;19.164;2023-11-19T01:29:15;99263.75;;;1.30
77414;BMP280;66486;49.992;19.164;2023-11-19T01:31:42;99253.75;;;1.39
77414;BMP280;66486;49.992;19.164;2023-11-19T01:34:09;99261.69;;;1.51
77414;BMP280;66486;49.992;19.164;2023-11-19T01:36:35;99255.75;;;1.42
77414;BMP280;66486;49.992;19.164;2023-11-19T01:39:02;99242.75;;;1.25
77414;BMP280;66486;49.992;19.164;2023-11-19T01:41:33;99223.59;;;0.92
77414;BMP280;66486;49.992;19.164;2023-11-19T01:43:59;99226.59;;;0.90
77414;BMP280;66486;49.992;19.164;2023-11-19T01:46:25;99229.34;;;0.82
77414;BMP280;66486;49.992;19.164;2023-11-19T01:48:52;99230.25;;;0.62
77414;BMP280;66486;49.992;19.164;2023-11-19T01:51:21;99232.34;;;0.44
77414;BMP280;66486;49.992;19.164;2023-11-19T01:53:48;99203.78;;;0.49
77414;BMP280;66486;49.992;19.164;2023-11-19T01:56:15;99194.06;;;0.54
77414;BMP280;66486;49.992;19.164;2023-11-19T01:58:43;99183.16;;;0.79
77414;BMP280;66486;49.992;19.164;2023-11-19T02:01:11;99193.63;;;0.76
77414;BMP280;66486;49.992;19.164;2023-11-19T02:03:38;99177.13;;;1.07
77414;BMP280;66486;49.992;19.164;2023-11-19T02:06:05;99169.06;;;1.15
77414;BMP280;66486;49.992;19.164;2023-11-19T02:08:31;99170.94;;;1.15
77414;BMP280;66486;49.992;19.164;2023-11-19T02:10:57;99176.13;;;1.11
77414;BMP280;66486;49.992;19.164;2023-11-19T02:13:25;99154.22;;;0.86
77414;BMP280;66486;49.992;19.164;2023-11-19T02:15:52;99148.53;;;0.60
77414;BMP280;66486;49.992;19.164;2023-11-19T02:18:22;99148.84;;;0.71
77414;BMP280;66486;49.992;19.164;2023-11-19T02:20:49;99151.84;;;0.57
77414;BMP280;66486;49.992;19.164;2023-11-19T02:23:16;99140.25;;;0.49
77414;BMP280;66486;49.992;19.164;2023-11-19T02:25:47;99118.22;;;0.45
77414;BMP280;66486;49.992;19.164;2023-11-19T02:28:18;99117.56;;;0.36
77414;BMP280;66486;49.992;19.164;2023-11-19T02:30:44;99104.81;;;0.26
77414;BMP280;66486;49.992;19.164;2023-11-19T02:33:11;99097.50;;;0.35
77414;BMP280;66486;49.992;19.164;2023-11-19T02:35:38;99096.75;;;0.23
77414;BMP280;66486;49.992;19.164;2023-11-19T02:38:06;99085.53;;;0.14
77414;BMP280;66486;49.992;19.164;2023-11-19T02:40:33;99084.31;;;0.23
77414;BMP280;66486;49.992;19.164;2023-11-19T02:42:59;99083.53;;;0.23
77414;BMP280;66486;49.992;19.164;2023-11-19T02:45:26;99072.19;;;0.10
77414;BMP280;66486;49.992;19.164;2023-11-19T02:47:53;99069.31;;;0.15
77414;BMP280;66486;49.992;19.164;2023-11-19T02:50:20;99074.06;;;0.22
77414;BMP280;66486;49.992;19.164;2023-11-19T02:52:54;99055.81;;;0.44
77414;BMP280;66486;49.992;19.164;2023-11-19T02:55:22;99049.25;;;0.66
77414;BMP280;66486;49.992;19.164;2023-11-19T02:57:50;99049.03;;;0.71
77414;BMP280;66486;49.992;19.164;2023-11-19T03:00:17;99058.72;;;0.39
77414;BMP280;66486;49.992;19.164;2023-11-19T03:02:45;99062.34;;;0.47
77414;BMP280;66486;49.992;19.164;2023-11-19T03:05:24;99039.59;;;0.18
77414;BMP280;66486;49.992;19.164;2023-11-19T03:07:51;99021.09;;;0.06
77414;BMP280;66486;49.992;19.164;2023-11-19T03:10:17;99005.69;;;-0.04
77414;BMP280;66486;49.992;19.164;2023-11-19T03:12:44;99009.72;;;-0.07
77414;BMP280;66486;49.992;19.164;2023-11-19T03:15:11;99026.78;;;0.20
77414;BMP280;66486;49.992;19.164;2023-11-19T03:17:41;99032.56;;;0.38
77414;BMP280;66486;49.992;19.164;2023-11-19T03:20:10;99035.00;;;0.43
77414;BMP280;66486;49.992;19.164;2023-11-19T03:22:37;99034.41;;;0.22
77414;BMP280;66486;49.992;19.164;2023-11-19T03:25:04;99029.00;;;-0.06
77414;BMP280;66486;49.992;19.164;2023-11-19T03:27:30;99022.19;;;-0.19
77414;BMP280;66486;49.992;19.164;2023-11-19T03:29:56;99009.75;;;-0.19
77414;BMP280;66486;49.992;19.164;2023-11-19T03:32:22;98985.53;;;-0.09
77414;BMP280;66486;49.992;19.164;2023-11-19T03:34:48;98985.06;;;0.14
77414;BMP280;66486;49.992;19.164;2023-11-19T03:37:15;98985.63;;;0.07
77414;BMP280;66486;49.992;19.164;2023-11-19T03:39:43;98991.22;;;0.45
77414;BMP280;66486;49.992;19.164;2023-11-19T03:42:09;98997.50;;;0.25
77414;BMP280;66486;49.992;19.164;2023-11-19T03:44:35;98984.81;;;0.19
77414;BMP280;66486;49.992;19.164;2023-11-19T03:47:01;98990.91;;;0.07
77414;BMP280;66486;49.992;19.164;2023-11-19T03:49:27;98993.22;;;-0.04
77414;BMP280;66486;49.992;19.164;2023-11-19T03:51:53;98967.56;;;-0.15
77414;BMP280;66486;49.992;19.164;2023-11-19T03:54:19;98956.78;;;-0.22
77414;BMP280;66486;49.992;19.164;2023-11-19T03:56:47;98945.81;;;0.16
77414;BMP280;66486;49.992;19.164;2023-11-19T03:59:13;98952.22;;;0.42
77414;BMP280;66486;49.992;19.164;2023-11-19T04:01:41;98947.06;;;0.62
77414;BMP280;66486;49.992;19.164;2023-11-19T04:04:07;98936.44;;;0.46
77414;BMP280;66486;49.992;19.164;2023-11-19T04:06:33;98935.47;;;0.38
77414;BMP280;66486;49.992;19.164;2023-11-19T04:08:59;98937.69;;;0.36
77414;BMP280;66486;49.992;19.164;2023-11-19T04:11:27;98935.69;;;0.33
77414;BMP280;66486;49.992;19.164;2023-11-19T04:13:53;98919.31;;;0.00
77414;BMP280;66486;49.992;19.164;2023-11-19T04:16:19;98922.88;;;-0.20
77414;BMP280;66486;49.992;19.164;2023-11-19T04:18:51;98912.59;;;-0.10
77414;BMP280;66486;49.992;19.164;2023-11-19T04:21:17;98906.75;;;-0.03
77414;BMP280;66486;49.992;19.164;2023-11-19T04:23:43;98919.09;;;-0.07
77414;BMP280;66486;49.992;19.164;2023-11-19T04:26:09;98929.72;;;0.21
77414;BMP280;66486;49.992;19.164;2023-11-19T04:28:34;98926.06;;;0.41
77414;BMP280;66486;49.992;19.164;2023-11-19T04:31:01;98915.91;;;0.71
77414;BMP280;66486;49.992;19.164;2023-11-19T04:33:27;98915.25;;;0.30
77414;BMP280;66486;49.992;19.164;2023-11-19T04:35:53;98907.41;;;0.06
77414;BMP280;66486;49.992;19.164;2023-11-19T04:38:19;98904.50;;;0.11
77414;BMP280;66486;49.992;19.164;2023-11-19T04:40:45;98902.78;;;0.03
77414;BMP280;66486;49.992;19.164;2023-11-19T04:43:11;98893.72;;;0.04
77414;BMP280;66486;49.992;19.164;2023-11-19T04:45:38;98892.06;;;0.12
77414;BMP280;66486;49.992;19.164;2023-11-19T04:48:05;98898.13;;;0.12
77414;BMP280;66486;49.992;19.164;2023-11-19T04:50:31;98899.38;;;0.03
77414;BMP280;66486;49.992;19.164;2023-11-19T04:52:57;98898.59;;;0.02
77414;BMP280;66486;49.992;19.164;2023-11-19T04:55:23;98885.09;;;-0.21
77414;BMP280;66486;49.992;19.164;2023-11-19T04:57:49;98891.47;;;-0.22
77414;BMP280;66486;49.992;19.164;2023-11-19T05:00:15;98892.44;;;-0.14
77414;BMP280;66486;49.992;19.164;2023-11-19T05:02:41;98895.38;;;-0.04
77414;BMP280;66486;49.992;19.164;2023-11-19T05:05:07;98882.44;;;0.19
77414;BMP280;66486;49.992;19.164;2023-11-19T05:07:34;98884.34;;;0.34
77414;BMP280;66486;49.992;19.164;2023-11-19T05:10:00;98884.03;;;0.08
77414;BMP280;66486;49.992;19.164;2023-11-19T05:12:26;98881.09;;;-0.15
77414;BMP280;66486;49.992;19.164;2023-11-19T05:14:53;98881.34;;;-0.20
77414;BMP280;66486;49.992;19.164;2023-11-19T05:17:19;98881.16;;;0.13
77414;BMP280;66486;49.992;19.164;2023-11-19T05:19:45;98877.81;;;0.16
77414;BMP280;66486;49.992;19.164;2023-11-19T05:22:11;98885.13;;;0.35
77414;BMP280;66486;49.992;19.164;2023-11-19T05:24:38;98876.72;;;0.17
77414;BMP280;66486;49.992;19.164;2023-11-19T05:27:05;98875.84;;;0.13
77414;BMP280;66486;49.992;19.164;2023-11-19T05:29:32;98862.19;;;0.11
77414;BMP280;66486;49.992;19.164;2023-11-19T05:31:59;98860.72;;;-0.02
77414;BMP280;66486;49.992;19.164;2023-11-19T05:34:25;98849.16;;;-0.10
77414;BMP280;66486;49.992;19.164;2023-11-19T05:36:50;98839.16;;;-0.16
77414;BMP280;66486;49.992;19.164;2023-11-19T05:39:17;98846.22;;;0.08
77414;BMP280;66486;49.992;19.164;2023-11-19T05:41:46;98847.75;;;0.36
77414;BMP280;66486;49.992;19.164;2023-11-19T05:44:12;98837.44;;;0.31
77414;BMP280;66486;49.992;19.164;2023-11-19T05:46:38;98831.88;;;0.21
77414;BMP280;66486;49.992;19.164;2023-11-19T05:49:11;98834.88;;;0.50
77414;BMP280;66486;49.992;19.164;2023-11-19T05:51:39;98826.69;;;0.40
77414;BMP280;66486;49.992;19.164;2023-11-19T05:54:09;98815.75;;;0.26
77414;BMP280;66486;49.992;19.164;2023-11-19T05:56:36;98817.72;;;0.29
77414;BMP280;66486;49.992;19.164;2023-11-19T05:59:02;98819.25;;;0.30
77414;BMP280;66486;49.992;19.164;2023-11-19T06:01:40;98837.44;;;0.31
77414;BMP280;66486;49.992;19.164;2023-11-19T06:04:07;98850.13;;;0.41
77414;BMP280;66486;49.992;19.164;2023-11-19T06:06:33;98846.16;;;0.32
77414;BMP280;66486;49.992;19.164;2023-11-19T06:09:00;98840.41;;;0.30
77414;BMP280;66486;49.992;19.164;2023-11-19T06:11:27;98832.16;;;0.31
77414;BMP280;66486;49.992;19.164;2023-11-19T06:13:54;98838.03;;;0.56
77414;BMP280;66486;49.992;19.164;2023-11-19T06:16:20;98831.78;;;0.48
77414;BMP280;66486;49.992;19.164;2023-11-19T06:18:46;98852.56;;;0.62
77414;BMP280;66486;49.992;19.164;2023-11-19T06:21:12;98852.03;;;0.57
77414;BMP280;66486;49.992;19.164;2023-11-19T06:23:38;98840.19;;;0.66
77414;BMP280;66486;49.992;19.164;2023-11-19T06:26:05;98843.78;;;0.58
77414;BMP280;66486;49.992;19.164;2023-11-19T06:28:32;98827.22;;;0.61
77414;BMP280;66486;49.992;19.164;2023-11-19T06:30:57;98808.25;;;0.43
77414;BMP280;66486;49.992;19.164;2023-11-19T06:33:24;98818.47;;;0.45
77414;BMP280;66486;49.992;19.164;2023-11-19T06:35:50;98800.56;;;0.38
77414;BMP280;66486;49.992;19.164;2023-11-19T06:38:16;98786.66;;;0.41
77414;BMP280;66486;49.992;19.164;2023-11-19T06:40:42;98770.78;;;0.57
77414;BMP280;66486;49.992;19.164;2023-11-19T06:43:08;98769.50;;;0.82
77414;BMP280;66486;49.992;19.164;2023-11-19T06:45:34;98776.41;;;1.03
77414;BMP280;66486;49.992;19.164;2023-11-19T06:48:03;98763.97;;;1.07
77414;BMP280;66486;49.992;19.164;2023-11-19T06:50:31;98769.72;;;1.09
77414;BMP280;66486;49.992;19.164;2023-11-19T06:52:57;98759.53;;;1.11
77414;BMP280;66486;49.992;19.164;2023-11-19T06:55:23;98759.31;;;1.00
77414;BMP280;66486;49.992;19.164;2023-11-19T06:57:50;98760.41;;;1.34
77414;BMP280;66486;49.992;19.164;2023-11-19T07:00:16;98765.25;;;1.28
77414;BMP280;66486;49.992;19.164;2023-11-19T07:02:43;98760.34;;;1.30
77414;BMP280;66486;49.992;19.164;2023-11-19T07:05:09;98760.06;;;1.35
77414;BMP280;66486;49.992;19.164;2023-11-19T07:07:36;98761.53;;;1.33
77414;BMP280;66486;49.992;19.164;2023-11-19T07:10:02;98744.22;;;1.39
77414;BMP280;66486;49.992;19.164;2023-11-19T07:12:30;98749.75;;;1.49
77414;BMP280;66486;49.992;19.164;2023-11-19T07:14:56;98747.34;;;1.44
77414;BMP280;66486;49.992;19.164;2023-11-19T07:17:23;98747.50;;;1.51
77414;BMP280;66486;49.992;19.164;2023-11-19T07:19:49;98759.78;;;1.60
77414;BMP280;66486;49.992;19.164;2023-11-19T07:22:16;98776.38;;;1.57
77414;BMP280;66486;49.992;19.164;2023-11-19T07:24:42;98757.69;;;1.49
77414;BMP280;66486;49.992;19.164;2023-11-19T07:27:08;98741.50;;;1.55
77414;BMP280;66486;49.992;19.164;2023-11-19T07:29:35;98742.84;;;1.64
77414;BMP280;66486;49.992;19.164;2023-11-19T07:32:02;98758.59;;;1.76
77414;BMP280;66486;49.992;19.164;2023-11-19T07:34:28;98761.59;;;1.75
77414;BMP280;66486;49.992;19.164;2023-11-19T07:36:55;98757.91;;;1.79
77414;BMP280;66486;49.992;19.164;2023-11-19T07:39:25;98756.19;;;1.90
77414;BMP280;66486;49.992;19.164;2023-11-19T07:41:51;98743.63;;;1.87
77414;BMP280;66486;49.992;19.164;2023-11-19T07:44:17;98736.88;;;1.90
77414;BMP280;66486;49.992;19.164;2023-11-19T07:46:43;98735.50;;;1.99
77414;BMP280;66486;49.992;19.164;2023-11-19T07:49:10;98738.00;;;2.12
77414;BMP280;66486;49.992;19.164;2023-11-19T07:51:37;98747.66;;;2.00
77414;BMP280;66486;49.992;19.164;2023-11-19T07:54:03;98731.91;;;1.88
77414;BMP280;66486;49.992;19.164;2023-11-19T07:56:30;98729.38;;;1.95
77414;BMP280;66486;49.992;19.164;2023-11-19T07:58:55;98725.03;;;2.07
77414;BMP280;66486;49.992;19.164;2023-11-19T08:01:22;98702.75;;;2.11
77414;BMP280;66486;49.992;19.164;2023-11-19T08:03:49;98688.00;;;2.14
77414;BMP280;66486;49.992;19.164;2023-11-19T08:06:15;98683.91;;;2.16
77414;BMP280;66486;49.992;19.164;2023-11-19T08:08:41;98685.97;;;2.26
77414;BMP280;66486;49.992;19.164;2023-11-19T08:11:10;98678.53;;;2.39
77414;BMP280;66486;49.992;19.164;2023-11-19T08:13:36;98668.75;;;2.43
77414;BMP280;66486;49.992;19.164;2023-11-19T08:16:02;98649.50;;;2.49
77414;BMP280;66486;49.992;19.164;2023-11-19T08:18:28;98654.59;;;2.62
77414;BMP280;66486;49.992;19.164;2023-11-19T08:20:54;98655.59;;;2.80
77414;BMP280;66486;49.992;19.164;2023-11-19T08:23:22;98655.78;;;2.97
77414;BMP280;66486;49.992;19.164;2023-11-19T08:25:50;98656.06;;;2.85
77414;BMP280;66486;49.992;19.164;2023-11-19T08:28:16;98651.47;;;2.82
77414;BMP280;66486;49.992;19.164;2023-11-19T08:30:42;98659.91;;;2.91
77414;BMP280;66486;49.992;19.164;2023-11-19T08:33:10;98667.94;;;2.98
77414;BMP280;66486;49.992;19.164;2023-11-19T08:35:36;98664.53;;;2.98
77414;BMP280;66486;49.992;19.164;2023-11-19T08:38:02;98662.69;;;3.02
77414;BMP280;66486;49.992;19.164;2023-11-19T08:40:28;98658.50;;;3.01
77414;BMP280;66486;49.992;19.164;2023-11-19T08:42:57;98661.91;;;3.01
77414;BMP280;66486;49.992;19.164;2023-11-19T08:45:23;98654.38;;;3.03
77414;BMP280;66486;49.992;19.164;2023-11-19T08:47:49;98658.19;;;3.06
77414;BMP280;66486;49.992;19.164;2023-11-19T08:50:15;98641.09;;;3.03
77414;BMP280;66486;49.992;19.164;2023-11-19T08:52:41;98640.69;;;3.05
77414;BMP280;66486;49.992;19.164;2023-11-19T08:55:07;98630.53;;;3.11
77414;BMP280;66486;49.992;19.164;2023-11-19T08:57:35;98635.91;;;3.14
77414;BMP280;66486;49.992;19.164;2023-11-19T09:00:02;98640.16;;;3.22
77414;BMP280;66486;49.992;19.164;2023-11-19T09:02:35;98637.09;;;3.20
77414;BMP280;66486;49.992;19.164;2023-11-19T09:05:04;98629.13;;;3.24
77414;BMP280;66486;49.992;19.164;2023-11-19T09:07:31;98629.25;;;3.34
77414;BMP280;66486;49.992;19.164;2023-11-19T09:09:57;98624.78;;;3.42
77414;BMP280;66486;49.992;19.164;2023-11-19T09:12:23;98609.63;;;3.49
77414;BMP280;66486;49.992;19.164;2023-11-19T09:14:49;98596.03;;;3.54
77414;BMP280;66486;49.992;19.164;2023-11-19T09:17:15;98601.13;;;3.70
77414;BMP280;66486;49.992;19.164;2023-11-19T09:19:43;98592.00;;;3.71
77414;BMP280;66486;49.992;19.164;2023-11-19T09:22:09;98579.13;;;3.80
77414;BMP280;66486;49.992;19.164;2023-11-19T09:24:42;98569.25;;;3.81
77414;BMP280;66486;49.992;19.164;2023-11-19T09:27:10;98572.34;;;3.90
77414;BMP280;66486;49.992;19.164;2023-11-19T09:29:36;98577.72;;;3.97
77414;BMP280;66486;49.992;19.164;2023-11-19T09:32:02;98581.53;;;3.96
77414;BMP280;66486;49.992;19.164;2023-11-19T09:34:29;98573.19;;;4.04
77414;BMP280;66486;49.992;19.164;2023-11-19T09:36:54;98569.81;;;4.11
77414;BMP280;66486;49.992;19.164;2023-11-19T09:39:20;98561.09;;;4.14
77414;BMP280;66486;49.992;19.164;2023-11-19T09:41:46;98556.16;;;4.16
77414;BMP280;66486;49.992;19.164;2023-11-19T09:44:13;98551.97;;;4.11
77414;BMP280;66486;49.992;19.164;2023-11-19T09:46:43;98541.34;;;4.22
77414;BMP280;66486;49.992;19.164;2023-11-19T09:49:10;98541.06;;;4.45
77414;BMP280;66486;49.992;19.164;2023-11-19T09:51:37;98544.19;;;4.64
77414;BMP280;66486;49.992;19.164;2023-11-19T09:54:03;98526.34;;;4.68
77414;BMP280;66486;49.992;19.164;2023-11-19T09:56:29;98530.16;;;4.89
77414;BMP280;66486;49.992;19.164;2023-11-19T09:58:56;98516.47;;;4.97
77414;BMP280;66486;49.992;19.164;2023-11-19T10:01:22;98514.94;;;5.14
77414;BMP280;66486;49.992;19.164;2023-11-19T10:03:50;98507.34;;;5.12
77414;BMP280;66486;49.992;19.164;2023-11-19T10:06:18;98502.78;;;5.23
77414;BMP280;66486;49.992;19.164;2023-11-19T10:08:45;98482.94;;;5.49
77414;BMP280;66486;49.992;19.164;2023-11-19T10:11:10;98485.22;;;5.51
77414;BMP280;66486;49.992;19.164;2023-11-19T10:13:38;98478.75;;;5.45
77414;BMP280;66486;49.992;19.164;2023-11-19T10:16:09;98474.53;;;5.44
77414;BMP280;66486;49.992;19.164;2023-11-19T10:18:38;98466.94;;;5.46
77414;BMP280;66486;49.992;19.164;2023-11-19T10:21:12;98463.13;;;5.43
77414;BMP280;66486;49.992;19.164;2023-11-19T10:23:56;98442.19;;;5.42
77414;BMP280;66486;49.992;19.164;2023-11-19T10:26:27;98437.22;;;5.40
77414;BMP280;66486;49.992;19.164;2023-11-19T10:28:55;98433.00;;;5.60
77414;BMP280;66486;49.992;19.164;2023-11-19T10:31:21;98430.25;;;5.78
77414;BMP280;66486;49.992;19.164;2023-11-19T10:33:51;98431.78;;;5.83
77414;BMP280;66486;49.992;19.164;2023-11-19T10:36:17;98432.50;;;5.94
77414;BMP280;66486;49.992;19.164;2023-11-19T10:38:53;98427.84;;;6.08
77414;BMP280;66486;49.992;19.164;2023-11-19T10:41:30;98427.38;;;6.17
77414;BMP280;66486;49.992;19.164;2023-11-19T10:43:57;98424.34;;;6.18
77414;BMP280;66486;49.992;19.164;2023-11-19T10:46:36;98420.53;;;6.23
77414;BMP280;66486;49.992;19.164;2023-11-19T10:49:03;98398.47;;;6.12
77414;BMP280;66486;49.992;19.164;2023-11-19T10:51:29;98391.56;;;6.14
77414;BMP280;66486;49.992;19.164;2023-11-19T10:54:04;98389.72;;;6.01
77414;BMP280;66486;49.992;19.164;2023-11-19T10:56:34;98389.78;;;5.87
77414;BMP280;66486;49.992;19.164;2023-11-19T10:59:00;98385.97;;;5.88
77414;BMP280;66486;49.992;19.164;2023-11-19T11:01:36;98382.94;;;5.86
77414;BMP280;66486;49.992;19.164;2023-11-19T11:04:14;98361.72;;;5.64
77414;BMP280;66486;49.992;19.164;2023-11-19T11:06:43;98371.22;;;5.65
77414;BMP280;66486;49.992;19.164;2023-11-19T11:09:11;98380.41;;;5.61
77414;BMP280;66486;49.992;19.164;2023-11-19T11:11:41;98363.63;;;5.57
77414;BMP280;66486;49.992;19.164;2023-11-19T11:14:12;98365.88;;;5.65
77414;BMP280;66486;49.992;19.164;2023-11-19T11:16:43;98363.69;;;5.53
77414;BMP280;66486;49.992;19.164;2023-11-19T11:19:11;98364.38;;;5.57
77414;BMP280;66486;49.992;19.164;2023-11-19T11:21:40;98365.53;;;5.56
77414;BMP280;66486;49.992;19.164;2023-11-19T11:29:41;98356.88;;;5.35
77414;BMP280;66486;49.992;19.164;2023-11-19T11:35:12;98350.03;;;5.27
77414;BMP280;66486;49.992;19.164;2023-11-19T11:37:47;98351.16;;;5.29
77414;BMP280;66486;49.992;19.164;2023-11-19T11:40:16;98340.88;;;5.24
77414;BMP280;66486;49.992;19.164;2023-11-19T11:42:46;98341.66;;;5.21
77414;BMP280;66486;49.992;19.164;2023-11-19T11:45:14;98343.56;;;5.13
77414;BMP280;66486;49.992;19.164;2023-11-19T11:50:16;98333.69;;;5.07
77414;BMP280;66486;49.992;19.164;2023-11-19T11:55:27;98313.53;;;4.99
77414;BMP280;66486;49.992;19.164;2023-11-19T11:57:55;98320.78;;;4.98
77414;BMP280;66486;49.992;19.164;2023-11-19T12:00:27;98308.97;;;4.96
77414;BMP280;66486;49.992;19.164;2023-11-19T12:02:59;98302.88;;;4.99
77414;BMP280;66486;49.992;19.164;2023-11-19T12:05:26;98300.19;;;4.99
77414;BMP280;66486;49.992;19.164;2023-11-19T12:07:57;98305.94;;;4.94
77414;BMP280;66486;49.992;19.164;2023-11-19T12:10:30;98298.25;;;5.10
77414;BMP280;66486;49.992;19.164;2023-11-19T12:12:59;98286.84;;;5.23
77414;BMP280;66486;49.992;19.164;2023-11-19T12:15:27;98273.88;;;5.18
77414;BMP280;66486;49.992;19.164;2023-11-19T12:17:54;98277.69;;;5.10
77414;BMP280;66486;49.992;19.164;2023-11-19T12:20:25;98268.66;;;4.87
77414;BMP280;66486;49.992;19.164;2023-11-19T12:22:53;98264.44;;;5.00
77414;BMP280;66486;49.992;19.164;2023-11-19T12:25:20;98261.44;;;4.80
77414;BMP280;66486;49.992;19.164;2023-11-19T12:27:50;98228.00;;;4.61
77414;BMP280;66486;49.992;19.164;2023-11-19T12:30:26;98256.84;;;4.88
77414;BMP280;66486;49.992;19.164;2023-11-19T12:32:53;98253.81;;;4.82
77414;BMP280;66486;49.992;19.164;2023-11-19T12:35:19;98246.59;;;4.76
77414;BMP280;66486;49.992;19.164;2023-11-19T12:37:47;98246.59;;;4.83
77414;BMP280;66486;49.992;19.164;2023-11-19T12:40:16;98245.81;;;4.86
77414;BMP280;66486;49.992;19.164;2023-11-19T12:42:45;98238.19;;;4.88
77414;BMP280;66486;49.992;19.164;2023-11-19T12:45:15;98241.22;;;4.93
77414;BMP280;66486;49.992;19.164;2023-11-19T12:47:45;98237.34;;;5.08
77414;BMP280;66486;49.992;19.164;2023-11-19T12:50:16;98215.69;;;4.99
77414;BMP280;66486;49.992;19.164;2023-11-19T12:52:55;98219.16;;;4.89
77414;BMP280;66486;49.992;19.164;2023-11-19T12:55:28;98215.41;;;4.80
77414;BMP280;66486;49.992;19.164;2023-11-19T12:57:54;98220.72;;;4.80
77414;BMP280;66486;49.992;19.164;2023-11-19T13:00:23;98215.00;;;4.85
77414;BMP280;66486;49.992;19.164;2023-11-19T13:02:51;98217.28;;;4.83
77414;BMP280;66486;49.992;19.164;2023-11-19T13:05:32;98223.38;;;4.80
77414;BMP280;66486;49.992;19.164;2023-11-19T13:08:03;98220.00;;;4.54
77414;BMP280;66486;49.992;19.164;2023-11-19T13:10:32;98211.31;;;4.47
77414;BMP280;66486;49.992;19.164;2023-11-19T13:13:04;98205.53;;;4.62
77414;BMP280;66486;49.992;19.164;2023-11-19T13:15:30;98200.59;;;4.72
77414;BMP280;66486;49.992;19.164;2023-11-19T13:17:56;98206.66;;;4.76
77414;BMP280;66486;49.992;19.164;2023-11-19T13:20:22;98213.56;;;4.45
77414;BMP280;66486;49.992;19.164;2023-11-19T13:22:59;98210.94;;;4.31
77414;BMP280;66486;49.992;19.164;2023-11-19T13:25:27;98199.16;;;4.32
77414;BMP280;66486;49.992;19.164;2023-11-19T13:27:54;98191.50;;;4.37
77414;BMP280;66486;49.992;19.164;2023-11-19T13:30:24;98191.50;;;4.37
77414;BMP280;66486;49.992;19.164;2023-11-19T13:32:51;98188.50;;;4.32
77414;BMP280;66486;49.992;19.164;2023-11-19T13:35:17;98183.50;;;4.44
77414;BMP280;66486;49.992;19.164;2023-11-19T13:37:44;98178.94;;;4.52
77414;BMP280;66486;49.992;19.164;2023-11-19T13:40:11;98182.66;;;4.76
77414;BMP280;66486;49.992;19.164;2023-11-19T13:42:43;98180.38;;;4.78
77414;BMP280;66486;49.992;19.164;2023-11-19T13:45:13;98191.44;;;4.73
77414;BMP280;66486;49.992;19.164;2023-11-19T13:47:41;98189.94;;;4.64
77414;BMP280;66486;49.992;19.164;2023-11-19T13:50:15;98179.22;;;4.79
77414;BMP280;66486;49.992;19.164;2023-11-19T13:52:43;98178.44;;;4.85
77414;BMP280;66486;49.992;19.164;2023-11-19T13:55:12;98180.38;;;4.74
77414;BMP280;66486;49.992;19.164;2023-11-19T13:57:41;98183.03;;;4.78
77414;BMP280;66486;49.992;19.164;2023-11-19T14:00:13;98180.78;;;4.73
77414;BMP280;66486;49.992;19.164;2023-11-19T14:02:40;98173.53;;;4.80
77414;BMP280;66486;49.992;19.164;2023-11-19T14:05:07;98165.56;;;4.69
77414;BMP280;66486;49.992;19.164;2023-11-19T14:07:33;98170.91;;;4.66
77414;BMP280;66486;49.992;19.164;2023-11-19T14:10:00;98172.06;;;4.61
77414;BMP280;66486;49.992;19.164;2023-11-19T14:12:26;98163.31;;;4.64
77414;BMP280;66486;49.992;19.164;2023-11-19T14:14:53;98158.34;;;4.70
77414;BMP280;66486;49.992;19.164;2023-11-19T14:17:18;98166.28;;;4.74
77414;BMP280;66486;49.992;19.164;2023-11-19T14:19:45;98168.63;;;4.72
77414;BMP280;66486;49.992;19.164;2023-11-19T14:22:11;98166.28;;;4.74
77414;BMP280;66486;49.992;19.164;2023-11-19T14:24:40;98171.66;;;4.70